createdAt,value
2019-03-06T00:01:49.485Z,1.43
2019-03-06T00:04:21.800Z,1.13
2019-03-06T00:06:52.625Z,1.70
2019-03-06T00:09:23.227Z,1.23
2019-03-06T00:11:54.498Z,1.50
2019-03-06T00:14:25.219Z,1.60
2019-03-06T00:16:56.055Z,1.43
2019-03-06T00:19:26.822Z,1.53
2019-03-06T00:21:59.446Z,1.13
2019-03-06T00:24:30.392Z,1.37
2019-03-06T00:27:01.073Z,1.93
2019-03-06T00:29:31.994Z,1.57
2019-03-06T00:32:02.742Z,1.80
2019-03-06T00:34:33.587Z,1.50
2019-03-06T00:37:04.500Z,1.27
2019-03-06T00:39:43.567Z,1.70
2019-03-06T00:42:15.924Z,1.40
2019-03-06T00:44:46.858Z,2.07
2019-03-06T00:47:17.693Z,1.47
2019-03-06T00:49:48.261Z,1.60
2019-03-06T00:52:18.758Z,2.07
2019-03-06T00:54:49.456Z,1.90
2019-03-06T00:57:20.126Z,1.70
2019-03-06T00:59:50.868Z,1.90
2019-03-06T01:02:22.091Z,1.50
2019-03-06T01:04:52.787Z,1.70
2019-03-06T01:07:23.492Z,2.10
2019-03-06T01:09:54.389Z,1.97
2019-03-06T01:12:24.917Z,2.30
2019-03-06T01:14:56.050Z,1.80
2019-03-06T01:17:26.646Z,1.60
2019-03-06T01:19:57.365Z,2.00
2019-03-06T01:22:28.102Z,1.90
2019-03-06T01:24:58.955Z,2.00
2019-03-06T01:27:29.869Z,2.03
2019-03-06T01:30:00.622Z,1.90
2019-03-06T01:32:31.818Z,1.60
2019-03-06T01:35:28.067Z,1.73
2019-03-06T01:38:06.722Z,1.63
2019-03-06T01:40:49.569Z,2.13
2019-03-06T01:43:26.090Z,1.60
2019-03-06T01:45:56.988Z,2.10
2019-03-06T01:48:28.807Z,2.03
2019-03-06T01:50:59.531Z,1.67
2019-03-06T01:53:30.263Z,1.70
2019-03-06T01:56:00.977Z,2.00
2019-03-06T01:58:32.079Z,2.40
2019-03-06T02:01:03.203Z,2.00
2019-03-06T02:03:34.241Z,2.00
2019-03-06T02:06:05.670Z,2.10
2019-03-06T02:08:37.022Z,1.93
2019-03-06T02:11:07.823Z,2.00
2019-03-06T02:13:38.570Z,1.90
2019-03-06T02:16:09.255Z,1.93
2019-03-06T02:18:40.303Z,1.73
2019-03-06T02:21:11.540Z,2.10
2019-03-06T02:23:42.354Z,1.70
2019-03-06T02:26:13.166Z,1.73
2019-03-06T02:28:43.957Z,1.70
2019-03-06T02:31:14.679Z,1.90
2019-03-06T02:33:45.574Z,2.00
2019-03-06T02:36:16.471Z,1.57
2019-03-06T02:38:47.275Z,1.87
2019-03-06T02:41:17.895Z,1.90
2019-03-06T02:43:49.251Z,1.77
2019-03-06T02:46:20.025Z,1.67
2019-03-06T02:48:50.738Z,1.67
2019-03-06T02:51:23.305Z,2.00
2019-03-06T02:53:54.220Z,1.80
2019-03-06T02:56:24.952Z,2.17
2019-03-06T02:59:07.467Z,1.63
2019-03-06T03:01:54.031Z,1.60
2019-03-06T03:04:43.853Z,1.83
2019-03-06T03:07:17.075Z,1.70
2019-03-06T03:09:57.506Z,1.93
2019-03-06T03:12:28.063Z,1.67
2019-03-06T03:14:58.836Z,1.80
2019-03-06T03:17:29.557Z,1.80
2019-03-06T03:20:00.385Z,1.97
2019-03-06T03:22:31.151Z,1.90
2019-03-06T03:25:03.312Z,1.90
2019-03-06T03:27:34.093Z,1.67
2019-03-06T03:30:06.324Z,1.97
2019-03-06T03:32:37.314Z,1.63
2019-03-06T03:35:07.825Z,2.00
2019-03-06T03:37:38.900Z,2.03
2019-03-06T03:40:10.741Z,1.93
2019-03-06T03:42:41.404Z,1.90
2019-03-06T03:45:12.662Z,1.60
2019-03-06T03:47:43.406Z,1.80
2019-03-06T03:50:14.142Z,2.00
2019-03-06T03:52:45.120Z,1.70
2019-03-06T03:55:15.760Z,1.60
2019-03-06T03:57:47.004Z,1.80
2019-03-06T04:00:22.281Z,1.83
2019-03-06T04:02:53.852Z,2.00
2019-03-06T04:05:24.645Z,1.90
2019-03-06T04:07:55.499Z,1.77
2019-03-06T04:10:26.221Z,1.87
2019-03-06T04:12:57.094Z,1.73
2019-03-06T04:15:28.035Z,2.10
2019-03-06T04:17:58.780Z,1.97
2019-03-06T04:20:29.314Z,2.10
2019-03-06T04:22:59.823Z,1.63
2019-03-06T04:25:30.614Z,2.13
2019-03-06T04:28:01.466Z,1.67
2019-03-06T04:30:32.246Z,2.03
2019-03-06T04:33:02.868Z,2.20
2019-03-06T04:35:33.571Z,2.10
2019-03-06T04:38:04.814Z,2.10
2019-03-06T04:40:38.130Z,1.80
2019-03-06T04:43:08.802Z,1.90
2019-03-06T04:45:39.595Z,2.43
2019-03-06T04:48:11.546Z,2.00
2019-03-06T04:50:42.381Z,1.80
2019-03-06T04:53:13.534Z,2.40
2019-03-06T04:55:44.072Z,1.80
2019-03-06T04:58:14.987Z,2.20
2019-03-06T05:00:45.766Z,1.90
2019-03-06T05:03:16.462Z,2.07
2019-03-06T05:05:47.541Z,1.80
2019-03-06T05:08:18.559Z,2.17
2019-03-06T05:10:50.023Z,2.10
2019-03-06T05:13:20.544Z,1.77
2019-03-06T05:15:51.692Z,2.00
2019-03-06T05:18:44.440Z,1.60
2019-03-06T05:21:15.250Z,1.67
2019-03-06T05:23:46.075Z,1.63
2019-03-06T05:26:16.972Z,1.67
2019-03-06T05:28:47.672Z,1.97
2019-03-06T05:31:18.456Z,2.00
2019-03-06T05:33:48.850Z,1.80
2019-03-06T05:36:51.267Z,2.47
2019-03-06T05:39:22.360Z,2.87
2019-03-06T05:41:53.242Z,1.90
2019-03-06T05:44:24.047Z,2.23
2019-03-06T05:46:55.535Z,2.50
2019-03-06T05:49:26.320Z,1.90
2019-03-06T05:51:57.214Z,2.40
2019-03-06T05:54:28.295Z,2.10
2019-03-06T05:56:59.159Z,2.17
2019-03-06T05:59:29.775Z,1.80
2019-03-06T06:02:00.516Z,2.53
2019-03-06T06:04:31.408Z,2.13
2019-03-06T06:07:02.183Z,2.10
2019-03-06T06:09:32.846Z,2.40
2019-03-06T06:12:03.648Z,2.00
2019-03-06T06:14:34.567Z,2.23
2019-03-06T06:17:05.325Z,2.67
2019-03-06T06:19:37.627Z,2.27
2019-03-06T06:22:14.270Z,2.07
2019-03-06T06:24:44.938Z,2.30
2019-03-06T06:27:15.730Z,2.33
2019-03-06T06:29:46.852Z,1.87
2019-03-06T06:32:17.662Z,2.20
2019-03-06T06:34:48.510Z,2.30
2019-03-06T06:37:19.088Z,2.30
2019-03-06T06:39:49.719Z,2.20
2019-03-06T06:42:20.573Z,2.00
2019-03-06T06:44:51.195Z,2.23
2019-03-06T06:47:22.129Z,2.13
2019-03-06T06:49:53.859Z,1.60
2019-03-06T06:53:01.380Z,1.90
2019-03-06T06:56:10.134Z,1.90
2019-03-06T06:58:49.671Z,1.80
2019-03-06T07:02:18.323Z,1.50
2019-03-06T07:05:34.575Z,1.87
2019-03-06T07:08:27.549Z,1.50
2019-03-06T07:11:16.084Z,1.90
2019-03-06T07:14:09.606Z,1.80
2019-03-06T07:16:59.451Z,1.83
2019-03-06T07:19:54.898Z,1.67
2019-03-06T07:22:56.642Z,2.17
2019-03-06T07:25:58.448Z,1.90
2019-03-06T07:29:01.328Z,2.20
2019-03-06T07:31:53.764Z,1.73
2019-03-06T07:34:49.270Z,1.40
2019-03-06T07:37:38.223Z,1.33
2019-03-06T07:40:18.518Z,2.13
2019-03-06T07:43:14.931Z,1.80
2019-03-06T07:46:05.761Z,1.60
2019-03-06T07:49:08.323Z,1.57
2019-03-06T07:52:12.914Z,1.43
2019-03-06T07:54:49.974Z,1.43
2019-03-06T07:57:28.556Z,1.60
2019-03-06T07:59:59.431Z,1.60
2019-03-06T08:02:59.117Z,1.33
2019-03-06T08:05:29.990Z,1.73
2019-03-06T08:08:00.687Z,1.60
2019-03-06T08:10:34.431Z,1.40
2019-03-06T08:13:21.180Z,1.40
2019-03-06T08:16:13.840Z,2.00
2019-03-06T08:18:50.441Z,1.20
2019-03-06T08:21:52.231Z,1.60
2019-03-06T08:24:47.940Z,1.60
2019-03-06T08:27:18.551Z,1.20
2019-03-06T08:29:49.570Z,1.60
2019-03-06T08:32:32.382Z,1.83
2019-03-06T08:35:02.883Z,1.37
2019-03-06T08:37:35.276Z,1.80
2019-03-06T08:40:07.278Z,1.87
2019-03-06T08:42:38.351Z,1.40
2019-03-06T08:45:10.461Z,1.80
2019-03-06T08:47:57.735Z,1.40
2019-03-06T08:50:53.181Z,1.70
2019-03-06T08:53:49.522Z,1.57
2019-03-06T08:56:44.811Z,1.87
2019-03-06T08:59:30.834Z,1.87
2019-03-06T09:02:20.599Z,1.60
2019-03-06T09:05:01.238Z,1.90
2019-03-06T09:07:42.330Z,2.50
2019-03-06T09:10:30.663Z,1.60
2019-03-06T09:13:32.203Z,2.57
2019-03-06T09:16:30.926Z,2.03
2019-03-06T09:19:21.742Z,1.67
2019-03-06T09:22:04.550Z,1.70
2019-03-06T09:25:07.841Z,1.57
2019-03-06T09:28:00.251Z,1.90
2019-03-06T09:30:45.871Z,1.60
2019-03-06T09:33:24.682Z,1.90
2019-03-06T09:36:19.078Z,2.00
2019-03-06T09:39:13.078Z,1.77
2019-03-06T09:41:57.761Z,1.67
2019-03-06T09:44:39.572Z,1.97
2019-03-06T09:47:30.084Z,1.73
2019-03-06T09:50:21.501Z,2.03
2019-03-06T09:53:05.026Z,1.80
2019-03-06T09:55:52.810Z,2.10
2019-03-06T09:58:42.506Z,2.10
2019-03-06T10:01:28.131Z,2.00
2019-03-06T10:04:31.634Z,1.90
2019-03-06T10:07:20.186Z,2.00
2019-03-06T10:10:10.369Z,2.30
2019-03-06T10:12:59.381Z,2.50
2019-03-06T10:15:40.005Z,1.83
2019-03-06T10:18:16.385Z,2.00
2019-03-06T10:20:48.427Z,1.90
2019-03-06T10:23:20.819Z,2.10
2019-03-06T10:25:51.663Z,2.10
2019-03-06T10:28:27.807Z,2.10
2019-03-06T10:31:02.127Z,2.10
2019-03-06T10:33:28.038Z,2.13
2019-03-06T10:35:58.886Z,2.10
2019-03-06T10:38:30.042Z,1.87
2019-03-06T10:41:02.561Z,1.90
2019-03-06T10:43:33.750Z,2.10
2019-03-06T10:46:04.543Z,2.10
2019-03-06T10:48:35.650Z,1.80
2019-03-06T10:51:06.615Z,1.70
2019-03-06T10:53:41.480Z,1.90
2019-03-06T10:56:11.327Z,1.97
2019-03-06T10:58:42.396Z,2.20
2019-03-06T11:01:13.919Z,1.90
2019-03-06T11:03:56.667Z,1.70
2019-03-06T11:06:27.794Z,1.90
2019-03-06T11:08:58.750Z,2.00
2019-03-06T11:11:29.913Z,1.90
2019-03-06T11:14:06.173Z,1.80
2019-03-06T11:16:34.917Z,1.93
2019-03-06T11:19:06.279Z,1.60
2019-03-06T11:21:37.209Z,2.00
2019-03-06T11:24:08.256Z,1.97
2019-03-06T11:26:40.012Z,1.83
2019-03-06T11:29:11.470Z,1.90
2019-03-06T11:31:42.495Z,1.90
2019-03-06T11:34:15.361Z,1.97
2019-03-06T11:36:46.390Z,2.13
2019-03-06T11:39:18.433Z,1.70
2019-03-06T11:41:50.593Z,2.20
2019-03-06T11:44:21.512Z,2.20
2019-03-06T11:46:53.092Z,1.77
2019-03-06T11:49:25.152Z,2.00
2019-03-06T11:52:06.636Z,2.00
2019-03-06T11:54:38.074Z,2.27
2019-03-06T11:57:09.988Z,2.00
2019-03-06T11:59:40.791Z,1.77
2019-03-06T12:02:13.056Z,2.03
2019-03-06T12:04:45.399Z,2.40
2019-03-06T12:07:16.467Z,2.30
2019-03-06T12:09:47.353Z,2.53
2019-03-06T12:12:17.966Z,2.70
2019-03-06T12:14:49.248Z,2.27
2019-03-06T12:17:20.477Z,2.10
2019-03-06T12:19:52.391Z,2.20
2019-03-06T12:22:23.428Z,2.20
2019-03-06T12:24:54.298Z,2.40
2019-03-06T12:27:24.946Z,2.47
2019-03-06T12:29:56.148Z,2.80
2019-03-06T12:32:27.294Z,2.10
2019-03-06T12:34:58.559Z,2.07
2019-03-06T12:37:29.642Z,2.30
2019-03-06T12:40:01.011Z,2.30
2019-03-06T12:42:33.668Z,2.40
2019-03-06T12:45:06.928Z,2.30
2019-03-06T12:47:37.837Z,1.90
2019-03-06T12:50:11.159Z,2.47
2019-03-06T12:52:42.140Z,2.00
2019-03-06T12:55:13.268Z,2.20
2019-03-06T12:57:44.255Z,2.00
2019-03-06T13:00:19.052Z,2.40
2019-03-06T13:02:50.029Z,2.73
2019-03-06T13:05:21.492Z,2.40
2019-03-06T13:07:52.307Z,2.20
2019-03-06T13:10:23.378Z,2.00
2019-03-06T13:12:54.209Z,2.00
2019-03-06T13:15:25.620Z,1.87
2019-03-06T13:17:57.325Z,2.23
2019-03-06T13:20:27.987Z,2.13
2019-03-06T13:22:59.750Z,1.77
2019-03-06T13:25:30.413Z,2.07
2019-03-06T13:28:01.050Z,2.00
2019-03-06T13:30:32.173Z,1.80
2019-03-06T13:33:14.109Z,1.77
2019-03-06T13:35:46.047Z,1.67
2019-03-06T13:38:16.964Z,2.03
2019-03-06T13:40:48.235Z,2.10
2019-03-06T13:43:20.242Z,2.00
2019-03-06T13:45:50.821Z,1.77
2019-03-06T13:48:21.374Z,1.90
2019-03-06T13:50:53.897Z,2.30
2019-03-06T13:53:24.585Z,1.67
2019-03-06T13:55:55.638Z,1.90
2019-03-06T13:58:27.383Z,1.80
2019-03-06T14:00:58.375Z,1.73
2019-03-06T14:03:28.974Z,1.70
2019-03-06T14:06:00.482Z,1.50
2019-03-06T14:08:31.032Z,1.57
2019-03-06T14:11:01.869Z,1.70
2019-03-06T14:13:32.726Z,1.90
2019-03-06T14:16:04.806Z,1.70
2019-03-06T14:18:35.517Z,1.70
2019-03-06T14:21:06.772Z,1.97
2019-03-06T14:23:38.353Z,1.60
2019-03-06T14:26:09.522Z,2.07
2019-03-06T14:28:40.018Z,1.30
2019-03-06T14:31:12.338Z,2.23
2019-03-06T14:33:43.238Z,1.90
2019-03-06T14:36:13.932Z,1.70
2019-03-06T14:38:45.027Z,1.70
2019-03-06T14:41:16.107Z,1.63
2019-03-06T14:43:46.927Z,1.80
2019-03-06T14:46:18.050Z,1.97
2019-03-06T14:48:49.953Z,1.80
2019-03-06T14:51:21.534Z,2.00
2019-03-06T14:53:53.011Z,1.90
2019-03-06T14:56:24.006Z,1.80
2019-03-06T14:58:54.611Z,1.70
2019-03-06T15:01:25.361Z,1.90
2019-03-06T15:03:57.378Z,1.90
2019-03-06T15:06:28.382Z,1.80
2019-03-06T15:08:59.576Z,1.60
2019-03-06T15:11:33.178Z,2.10
2019-03-06T15:14:03.135Z,2.07
2019-03-06T15:16:34.544Z,1.67
2019-03-06T15:19:05.600Z,1.40
2019-03-06T15:21:36.786Z,1.80
2019-03-06T15:24:07.621Z,1.73
2019-03-06T15:26:38.354Z,1.80
2019-03-06T15:29:09.306Z,1.87
2019-03-06T15:31:41.531Z,1.93
2019-03-06T15:34:13.034Z,1.90
2019-03-06T15:36:44.789Z,1.60
2019-03-06T15:39:48.551Z,1.80
2019-03-06T15:42:19.493Z,1.90
2019-03-06T15:44:50.159Z,1.87
2019-03-06T15:47:22.610Z,1.47
2019-03-06T15:49:53.459Z,2.00
2019-03-06T15:52:24.606Z,1.60
2019-03-06T15:54:55.462Z,1.80
2019-03-06T15:57:26.514Z,1.97
2019-03-06T15:59:57.632Z,1.67
2019-03-06T16:02:29.088Z,2.00
2019-03-06T16:04:59.918Z,2.00
2019-03-06T16:07:35.388Z,2.40
2019-03-06T16:10:06.812Z,1.90
2019-03-06T16:12:37.651Z,1.70
2019-03-06T16:15:10.046Z,1.83
2019-03-06T16:17:40.762Z,2.10
2019-03-06T16:20:15.766Z,2.07
2019-03-06T16:22:46.853Z,1.83
2019-03-06T16:25:19.532Z,1.90
2019-03-06T16:27:50.453Z,2.03
2019-03-06T16:30:21.493Z,1.90
2019-03-06T16:32:52.470Z,2.00
2019-03-06T16:35:23.587Z,1.70
2019-03-06T16:37:54.753Z,1.97
2019-03-06T16:40:25.936Z,1.90
2019-03-06T16:42:57.058Z,2.03
2019-03-06T16:45:28.686Z,1.80
2019-03-06T16:48:00.889Z,2.30
2019-03-06T16:50:31.877Z,2.10
2019-03-06T16:53:03.223Z,2.00
2019-03-06T16:55:34.275Z,2.03
2019-03-06T16:58:05.260Z,2.00
2019-03-06T17:00:36.211Z,1.90
2019-03-06T17:03:07.284Z,1.97
2019-03-06T17:05:38.778Z,2.20
2019-03-06T17:08:09.712Z,2.10
2019-03-06T17:10:41.666Z,2.00
2019-03-06T17:13:12.898Z,2.13
2019-03-06T17:15:44.258Z,2.30
2019-03-06T17:18:15.236Z,2.43
2019-03-06T17:20:46.049Z,2.63
2019-03-06T17:23:16.868Z,2.20
2019-03-06T17:25:47.622Z,3.13
2019-03-06T17:28:19.529Z,2.47
2019-03-06T17:30:51.127Z,2.30
2019-03-06T17:33:22.173Z,2.73
2019-03-06T17:35:52.908Z,2.20
2019-03-06T17:38:23.822Z,2.00
2019-03-06T17:40:54.468Z,2.20
2019-03-06T17:43:25.311Z,2.27
2019-03-06T17:45:55.848Z,2.07
2019-03-06T17:48:26.763Z,2.20
2019-03-06T17:50:57.584Z,2.20
2019-03-06T17:53:28.466Z,2.17
2019-03-06T17:55:59.186Z,2.23
2019-03-06T17:58:29.883Z,2.60
2019-03-06T18:01:19.330Z,2.77
2019-03-06T18:04:13.855Z,2.40
2019-03-06T18:06:44.760Z,2.73
2019-03-06T18:09:15.898Z,3.17
2019-03-06T18:11:46.776Z,2.53
2019-03-06T18:14:18.747Z,2.40
2019-03-06T18:16:49.933Z,2.30
2019-03-06T18:19:20.959Z,2.93
2019-03-06T18:21:51.675Z,2.80
2019-03-06T18:24:22.245Z,2.73
2019-03-06T18:26:52.981Z,2.80
2019-03-06T18:29:24.014Z,3.13
2019-03-06T18:31:54.642Z,3.20
2019-03-06T18:34:25.360Z,3.20
2019-03-06T18:36:56.203Z,3.20
2019-03-06T18:39:28.636Z,3.50
2019-03-06T18:42:00.294Z,4.33
2019-03-06T18:44:31.021Z,3.53
2019-03-06T18:47:03.732Z,5.53
2019-03-06T18:49:34.291Z,4.20
2019-03-06T18:52:04.893Z,3.90
2019-03-06T18:54:36.066Z,3.77
2019-03-06T18:57:06.970Z,3.73
2019-03-06T18:59:38.182Z,3.70
2019-03-06T19:02:09.276Z,3.43
2019-03-06T19:04:40.155Z,3.60
2019-03-06T19:07:11.205Z,3.60
2019-03-06T19:09:43.258Z,3.50
2019-03-06T19:12:14.710Z,3.70
2019-03-06T19:14:45.596Z,3.53
2019-03-06T19:17:16.208Z,3.53
2019-03-06T19:19:47.346Z,3.83
2019-03-06T19:22:17.902Z,3.27
2019-03-06T19:24:48.654Z,3.73
2019-03-06T19:27:19.561Z,3.43
2019-03-06T19:29:50.530Z,3.80
2019-03-06T19:32:21.519Z,3.50
2019-03-06T19:34:52.688Z,3.40
2019-03-06T19:37:23.250Z,3.10
2019-03-06T19:39:53.934Z,3.40
2019-03-06T19:42:24.702Z,3.23
2019-03-06T19:44:57.195Z,3.50
2019-03-06T19:47:28.117Z,3.27
2019-03-06T19:49:58.888Z,3.17
2019-03-06T19:52:29.753Z,3.67
2019-03-06T19:55:00.366Z,3.77
2019-03-06T19:58:08.567Z,3.33
2019-03-06T20:00:39.800Z,3.40
2019-03-06T20:03:11.117Z,3.20
2019-03-06T20:05:41.746Z,3.70
2019-03-06T20:08:13.296Z,3.00
2019-03-06T20:10:44.902Z,3.23
2019-03-06T20:13:15.850Z,2.93
2019-03-06T20:15:46.925Z,2.80
2019-03-06T20:18:18.007Z,3.30
2019-03-06T20:20:48.651Z,3.07
2019-03-06T20:23:19.394Z,2.83
2019-03-06T20:25:50.658Z,3.30
2019-03-06T20:28:21.218Z,3.13
2019-03-06T20:30:52.114Z,2.93
2019-03-06T20:33:25.094Z,3.30
2019-03-06T20:35:56.070Z,3.63
2019-03-06T20:38:28.382Z,3.50
2019-03-06T20:40:59.158Z,3.00
2019-03-06T20:43:29.685Z,3.03
2019-03-06T20:46:00.909Z,3.50
2019-03-06T20:48:31.764Z,3.20
2019-03-06T20:51:02.543Z,3.80
2019-03-06T20:53:33.066Z,3.60
2019-03-06T20:56:03.658Z,3.30
2019-03-06T20:58:34.479Z,4.23
2019-03-06T21:01:06.746Z,3.63
2019-03-06T21:03:38.111Z,3.50
2019-03-06T21:06:09.183Z,3.33
2019-03-06T21:08:40.295Z,3.83
2019-03-06T21:11:10.971Z,3.40
2019-03-06T21:13:42.783Z,3.20
2019-03-06T21:16:13.369Z,3.90
2019-03-06T21:18:44.265Z,3.40
2019-03-06T21:21:15.445Z,3.30
2019-03-06T21:23:46.049Z,3.27
2019-03-06T21:26:18.008Z,3.47
2019-03-06T21:28:48.890Z,3.17
2019-03-06T21:31:20.027Z,3.77
2019-03-06T21:33:50.738Z,3.60
2019-03-06T21:36:21.788Z,3.33
2019-03-06T21:38:52.566Z,3.40
2019-03-06T21:41:23.457Z,3.53
2019-03-06T21:43:54.448Z,3.73
2019-03-06T21:46:25.049Z,3.60
2019-03-06T21:48:56.688Z,3.47
2019-03-06T21:51:27.680Z,3.37
2019-03-06T21:53:58.638Z,3.63
2019-03-06T21:56:31.058Z,3.70
2019-03-06T21:59:01.970Z,4.13
2019-03-06T22:01:33.749Z,4.03
2019-03-06T22:04:04.775Z,4.10
2019-03-06T22:06:35.440Z,4.07
2019-03-06T22:09:12.058Z,3.60
2019-03-06T22:11:44.956Z,4.07
2019-03-06T22:14:16.226Z,3.93
2019-03-06T22:16:46.760Z,4.40
2019-03-06T22:19:17.326Z,4.47
2019-03-06T22:21:48.040Z,3.97
2019-03-06T22:24:18.814Z,4.50
2019-03-06T22:26:49.762Z,4.30
2019-03-06T22:29:20.310Z,4.47
2019-03-06T22:31:52.334Z,4.93
2019-03-06T22:34:23.113Z,4.30
2019-03-06T22:36:54.363Z,4.57
2019-03-06T22:39:25.299Z,5.43
2019-03-06T22:41:55.935Z,5.10
2019-03-06T22:44:26.902Z,5.70
2019-03-06T22:46:57.443Z,6.30
2019-03-06T22:49:28.743Z,5.97
2019-03-06T22:51:59.577Z,5.87
2019-03-06T22:54:30.753Z,6.80
2019-03-06T22:57:01.644Z,6.27
2019-03-06T22:59:32.532Z,5.93
2019-03-06T23:02:03.419Z,6.70
2019-03-06T23:04:34.110Z,6.50
2019-03-06T23:07:05.141Z,7.47
2019-03-06T23:09:35.883Z,7.73
2019-03-06T23:12:06.463Z,7.17
2019-03-06T23:14:37.370Z,6.60
2019-03-06T23:17:08.270Z,6.67
2019-03-06T23:19:39.166Z,7.30
2019-03-06T23:22:10.319Z,6.80
2019-03-06T23:24:41.230Z,7.33
2019-03-06T23:27:12.025Z,7.20
2019-03-06T23:29:42.914Z,6.70
2019-03-06T23:32:13.887Z,7.03
2019-03-06T23:34:44.789Z,7.10
2019-03-06T23:37:15.476Z,6.90
2019-03-06T23:39:46.750Z,6.70
2019-03-06T23:42:17.358Z,6.90
2019-03-06T23:44:48.175Z,7.30
2019-03-06T23:47:20.595Z,6.57
2019-03-06T23:49:52.529Z,7.37
2019-03-06T23:52:29.230Z,6.97
2019-03-06T23:55:00.282Z,6.60
2019-03-06T23:57:31.469Z,6.43
